Time;durP1;ratioP1;P1;durP2;ratioP2;P2;SDS_P1;SDS_P2;PMS_P1;PMS_P2;Temp;Humidity;BMP_temperature;BMP_pressure;BME280_temperature;BME280_humidity;BME280_pressure;Samples;Min_cycle;Max_cycle;Signal;HPM_P1;HPM_P2
2023/03/09 00:00:07;;;;;;;5.03;1.50;;;;;;;8.94;100.00;93235.19;4985776;28;20208;-79
2023/03/09 00:02:33;;;;;;;2.30;1.20;;;;;;;8.78;100.00;93244.09;4986326;28;20189;-78
2023/03/09 00:04:58;;;;;;;3.63;1.10;;;;;;;8.90;100.00;93233.97;4995181;28;20196;-77
2023/03/09 00:07:23;;;;;;;2.20;0.90;;;;;;;8.96;100.00;93248.75;5003481;28;20194;-78
2023/03/09 00:09:48;;;;;;;1.30;0.80;;;;;;;8.95;100.00;93247.16;4985533;28;20187;-78
2023/03/09 00:12:14;;;;;;;2.20;0.80;;;;;;;9.00;100.00;93278.41;4985416;28;20657;-78
2023/03/09 00:14:40;;;;;;;1.30;1.10;;;;;;;8.76;100.00;93249.47;4994407;28;20184;-79
2023/03/09 00:17:05;;;;;;;2.73;0.93;;;;;;;8.80;100.00;93292.06;4987315;28;20219;-79
2023/03/09 00:19:30;;;;;;;0.90;0.50;;;;;;;8.96;99.89;93257.28;5001404;28;20207;-80
2023/03/09 00:21:56;;;;;;;1.33;0.60;;;;;;;8.92;99.03;93257.88;4986315;28;20675;-79
2023/03/09 00:24:27;;;;;;;0.93;0.67;;;;;;;8.90;99.74;93244.31;4980025;28;20198;-78
2023/03/09 00:26:58;;;;;;;1.30;0.70;;;;;;;8.86;100.00;93261.25;4986464;28;20358;-80
2023/03/09 00:29:25;;;;;;;1.70;0.90;;;;;;;8.91;100.00;93282.16;4994417;28;20184;-80
2023/03/09 00:31:50;;;;;;;2.47;0.90;;;;;;;8.82;100.00;93265.19;4991025;28;20253;-79
2023/03/09 00:34:16;;;;;;;1.00;0.70;;;;;;;8.75;100.00;93289.28;4987676;28;20212;-80
2023/03/09 00:36:41;;;;;;;1.50;1.20;;;;;;;8.76;100.00;93296.03;4994783;28;20243;-81
2023/03/09 00:39:07;;;;;;;0.93;0.90;;;;;;;8.82;100.00;93285.91;4983964;28;20564;-77
2023/03/09 00:41:32;;;;;;;0.90;0.80;;;;;;;8.56;100.00;93289.13;4975833;28;20196;-79
2023/03/09 00:43:59;;;;;;;3.10;1.00;;;;;;;8.63;100.00;93283.00;4975670;28;20191;-81
2023/03/09 00:46:24;;;;;;;2.00;1.10;;;;;;;8.65;100.00;93286.19;4987041;28;20814;-80
2023/03/09 00:48:50;;;;;;;2.30;0.70;;;;;;;8.57;100.00;93296.72;4986267;28;20181;-79
2023/03/09 00:51:15;;;;;;;0.73;0.60;;;;;;;8.55;100.00;93267.63;4975139;28;20189;-80
2023/03/09 00:53:41;;;;;;;0.53;0.53;;;;;;;8.53;100.00;93264.44;4997238;28;20203;-80
2023/03/09 00:56:08;;;;;;;1.93;0.90;;;;;;;8.56;99.79;93269.22;4991330;28;20228;-79
2023/03/09 00:58:34;;;;;;;0.57;0.50;;;;;;;8.68;99.50;93257.38;4986528;28;20209;-79
2023/03/09 01:00:59;;;;;;;1.50;0.90;;;;;;;8.69;98.85;93274.50;4990298;28;20262;-79
2023/03/09 01:03:25;;;;;;;1.17;0.70;;;;;;;8.53;99.47;93256.69;4991362;28;20729;-79
2023/03/09 01:05:51;;;;;;;1.23;0.70;;;;;;;8.41;99.91;93266.78;4983740;28;20295;-78
2023/03/09 01:08:16;;;;;;;1.40;0.70;;;;;;;8.46;99.76;93274.75;4985230;28;20188;-79
2023/03/09 01:10:41;;;;;;;1.90;0.73;;;;;;;8.35;100.00;93280.47;4992584;28;20219;-79
2023/03/09 01:13:07;;;;;;;0.70;0.67;;;;;;;8.39;99.38;93253.25;4977765;28;20184;-79
2023/03/09 01:15:33;;;;;;;1.03;0.60;;;;;;;8.35;99.56;93236.50;4983073;28;20215;-80
2023/03/09 01:17:58;;;;;;;1.50;0.70;;;;;;;8.44;98.96;93263.00;4983916;28;20185;-80
2023/03/09 01:20:23;;;;;;;1.63;0.60;;;;;;;8.41;99.12;93269.38;4984512;28;20203;-79
2023/03/09 01:22:48;;;;;;;4.37;1.27;;;;;;;8.57;98.77;93262.28;4973939;28;20293;-80
2023/03/09 01:25:14;;;;;;;2.43;0.90;;;;;;;8.61;99.31;93269.47;4985872;28;20208;-79
2023/03/09 01:27:39;;;;;;;3.37;0.90;;;;;;;8.47;99.33;93278.94;4993963;28;20241;-80
2023/03/09 01:30:05;;;;;;;3.67;1.13;;;;;;;8.49;99.60;93274.41;4995805;28;20651;-80
2023/03/09 01:32:30;;;;;;;2.93;1.30;;;;;;;8.30;98.14;93271.63;4998802;28;20196;-78
2023/03/09 01:34:56;;;;;;;2.90;0.90;;;;;;;8.58;96.36;93253.53;4986514;28;20667;-79
2023/03/09 01:37:21;;;;;;;1.37;1.07;;;;;;;8.49;97.09;93258.06;4976402;28;20193;-79
2023/03/09 01:39:46;;;;;;;1.50;0.97;;;;;;;8.58;97.35;93243.19;4991571;28;20212;-79
2023/03/09 01:42:12;;;;;;;2.57;1.03;;;;;;;8.57;96.46;93237.22;4984844;28;20201;-79
2023/03/09 01:44:37;;;;;;;2.00;0.83;;;;;;;8.43;97.46;93259.63;4974638;28;20214;-79
2023/03/09 01:47:02;;;;;;;1.90;0.80;;;;;;;8.42;96.85;93257.22;4985610;28;20211;-78
2023/03/09 01:49:48;;;;;;;2.87;0.90;;;;;;;8.29;95.95;93262.28;5004526;28;20203;-79
2023/03/09 01:52:22;;;;;;;2.50;0.83;;;;;;;8.29;95.37;93257.91;4981599;28;20213;-79
2023/03/09 01:55:07;;;;;;;2.07;0.70;;;;;;;8.28;95.30;93260.69;4991216;28;20203;-80
2023/03/09 01:57:36;;;;;;;1.37;0.60;;;;;;;8.27;94.30;93246.97;4972919;28;20204;-79
2023/03/09 02:00:24;;;;;;;0.50;0.40;;;;;;;8.09;92.90;93242.25;4987870;28;20264;-79
2023/03/09 02:02:56;;;;;;;0.53;0.40;;;;;;;8.13;93.33;93251.25;4996349;28;20264;-80
2023/03/09 02:05:58;;;;;;;2.33;0.50;;;;;;;8.13;92.67;93240.91;4991579;28;20238;-78
2023/03/09 02:08:26;;;;;;;0.80;0.60;;;;;;;8.22;92.01;93236.41;4969144;28;20199;-80
2023/03/09 02:10:55;;;;;;;3.07;0.60;;;;;;;8.12;91.70;93234.13;4982759;28;20668;-80
2023/03/09 02:13:25;;;;;;;1.07;0.40;;;;;;;8.31;91.50;93218.94;4985995;28;20191;-79
2023/03/09 02:15:50;;;;;;;1.43;0.40;;;;;;;8.24;91.27;93237.81;4992831;28;20208;-79
2023/03/09 02:18:15;;;;;;;0.77;0.43;;;;;;;8.20;91.63;93197.78;4974342;28;20195;-80
2023/03/09 02:20:53;;;;;;;1.53;0.50;;;;;;;8.19;92.81;93211.72;4984228;28;20189;-78
2023/03/09 02:23:40;;;;;;;1.37;0.60;;;;;;;8.16;94.84;93217.25;4988870;28;20187;-80
2023/03/09 02:26:18;;;;;;;0.93;0.43;;;;;;;8.17;95.50;93223.22;4997938;28;20227;-78
2023/03/09 02:28:44;;;;;;;1.20;0.60;;;;;;;8.15;95.63;93235.56;4977604;28;20184;-79
2023/03/09 02:31:11;;;;;;;0.60;0.20;;;;;;;8.07;95.07;93220.19;4997801;28;20250;-79
2023/03/09 02:33:36;;;;;;;0.70;0.40;;;;;;;8.11;96.01;93235.13;4986842;28;20258;-80
2023/03/09 02:36:02;;;;;;;0.33;0.30;;;;;;;8.10;96.82;93249.03;4990548;28;20274;-79
2023/03/09 02:38:27;;;;;;;0.53;0.40;;;;;;;8.16;97.68;93268.97;4992767;28;20195;-78
2023/03/09 02:40:54;;;;;;;0.70;0.40;;;;;;;8.11;98.37;93270.50;4986244;28;20719;-79
2023/03/09 02:43:22;;;;;;;2.03;0.60;;;;;;;8.14;99.37;93276.13;4970727;28;20199;-79
2023/03/09 02:45:48;;;;;;;0.63;0.33;;;;;;;8.21;99.07;93296.81;4996290;28;20707;-79
2023/03/09 02:48:13;;;;;;;1.13;0.50;;;;;;;8.16;100.00;93312.91;4971679;28;20199;-80
2023/03/09 02:50:39;;;;;;;0.47;0.40;;;;;;;8.04;100.00;93329.09;4986462;28;20192;-79
2023/03/09 02:53:04;;;;;;;2.20;0.60;;;;;;;7.92;100.00;93337.38;4989792;28;20466;-79
2023/03/09 02:55:30;;;;;;;1.53;0.77;;;;;;;8.05;100.00;93344.44;4991565;28;20204;-79
2023/03/09 02:57:55;;;;;;;0.97;0.40;;;;;;;7.95;100.00;93356.84;4987523;28;20203;-80
2023/03/09 03:00:24;;;;;;;0.43;0.40;;;;;;;7.97;100.00;93375.59;4991960;28;20293;-78
2023/03/09 03:02:50;;;;;;;0.30;0.30;;;;;;;7.90;100.00;93385.84;4988112;28;20682;-78
2023/03/09 03:05:15;;;;;;;0.97;0.50;;;;;;;7.85;100.00;93421.78;4985192;28;20236;-79
2023/03/09 03:07:40;;;;;;;1.47;0.40;;;;;;;7.82;100.00;93442.81;5001404;28;20271;-78
2023/03/09 03:10:06;;;;;;;0.40;0.40;;;;;;;7.95;100.00;93442.16;4981021;28;20239;-80
2023/03/09 03:12:31;;;;;;;0.30;0.30;;;;;;;7.65;100.00;93447.38;4982738;28;20192;-79
2023/03/09 03:14:57;;;;;;;0.33;0.33;;;;;;;7.59;100.00;93442.94;4984041;28;20189;-80
2023/03/09 03:17:22;;;;;;;0.70;0.57;;;;;;;7.59;100.00;93437.78;4977004;28;20206;-78
2023/03/09 03:19:47;;;;;;;1.13;0.60;;;;;;;7.54;100.00;93445.28;4969730;28;20222;-78
2023/03/09 03:22:13;;;;;;;1.30;0.67;;;;;;;7.35;100.00;93448.41;4980437;28;20278;-79
2023/03/09 03:24:39;;;;;;;3.27;0.97;;;;;;;7.37;100.00;93452.41;4972847;28;20203;-80
2023/03/09 03:27:05;;;;;;;2.53;1.23;;;;;;;7.30;100.00;93463.63;4989592;28;20220;-80
2023/03/09 03:29:30;;;;;;;2.43;0.50;;;;;;;7.26;100.00;93464.97;4987229;28;20198;-80
2023/03/09 03:31:55;;;;;;;3.13;0.87;;;;;;;7.12;100.00;93470.91;4980229;28;20320;-78
2023/03/09 03:34:21;;;;;;;1.73;0.97;;;;;;;7.23;100.00;93484.19;4983827;28;20226;-78
2023/03/09 03:36:46;;;;;;;3.97;0.87;;;;;;;7.18;100.00;93496.03;4986080;28;20211;-79
2023/03/09 03:39:11;;;;;;;4.33;1.57;;;;;;;7.08;100.00;93516.94;4976161;28;20208;-77
2023/03/09 03:41:37;;;;;;;4.50;1.30;;;;;;;7.21;100.00;93511.97;4980831;28;20194;-78
2023/03/09 03:44:02;;;;;;;2.03;1.20;;;;;;;7.15;100.00;93527.34;4967422;28;20195;-77
2023/03/09 03:46:27;;;;;;;2.47;1.00;;;;;;;7.23;100.00;93538.41;4988620;28;20203;-79
2023/03/09 03:48:53;;;;;;;5.47;1.23;;;;;;;7.34;100.00;93537.97;4994525;28;20645;-79
2023/03/09 03:51:18;;;;;;;4.73;1.33;;;;;;;7.17;100.00;93556.38;4983946;28;20188;-81
2023/03/09 03:53:44;;;;;;;8.50;1.43;;;;;;;7.19;100.00;93542.31;4986946;28;20199;-78
2023/03/09 03:56:09;;;;;;;5.43;1.40;;;;;;;7.25;100.00;93556.31;4980212;28;20214;-79
2023/03/09 03:58:34;;;;;;;5.53;1.53;;;;;;;7.25;100.00;93561.47;5008356;28;20204;-78
2023/03/09 04:01:00;;;;;;;7.77;1.67;;;;;;;7.18;100.00;93563.16;4984676;28;20204;-80
2023/03/09 04:03:25;;;;;;;4.63;1.40;;;;;;;7.25;100.00;93553.72;4995820;28;20207;-79
2023/03/09 04:05:50;;;;;;;6.90;1.70;;;;;;;7.21;100.00;93547.31;4992850;28;20220;-79
2023/03/09 04:08:16;;;;;;;6.87;1.70;;;;;;;7.20;100.00;93576.69;4988569;28;20237;-78
2023/03/09 04:10:41;;;;;;;5.80;1.30;;;;;;;7.24;100.00;93563.22;4991552;28;20184;-79
2023/03/09 04:13:06;;;;;;;6.60;1.37;;;;;;;7.08;100.00;93548.72;4999415;28;20188;-78
2023/03/09 04:15:33;;;;;;;4.87;1.43;;;;;;;7.06;100.00;93560.16;4988787;28;20234;-79
2023/03/09 04:17:58;;;;;;;10.13;1.97;;;;;;;7.10;100.00;93556.28;4995514;28;20195;-80
2023/03/09 04:20:23;;;;;;;8.87;1.90;;;;;;;7.17;100.00;93571.88;4999095;28;20659;-80
2023/03/09 04:22:49;;;;;;;7.80;1.80;;;;;;;7.23;100.00;93590.03;4992902;28;20192;-79
2023/03/09 04:25:15;;;;;;;4.27;1.67;;;;;;;7.10;100.00;93579.50;4977017;28;20260;-78
2023/03/09 04:27:40;;;;;;;8.43;2.23;;;;;;;6.94;100.00;93572.69;4979859;28;20203;-78
2023/03/09 04:30:06;;;;;;;6.40;2.20;;;;;;;7.07;99.71;93582.44;4988922;28;20184;-78
2023/03/09 04:32:31;;;;;;;4.63;2.10;;;;;;;7.14;99.40;93591.06;5002683;28;20196;-80
2023/03/09 04:34:57;;;;;;;5.33;2.10;;;;;;;7.05;99.54;93594.69;4997160;28;20188;-77
2023/03/09 04:37:22;;;;;;;7.20;2.00;;;;;;;7.03;99.71;93592.28;4985027;28;20598;-78
2023/03/09 04:39:47;;;;;;;7.37;1.90;;;;;;;7.05;99.14;93616.16;4981552;28;20216;-78
2023/03/09 04:42:13;;;;;;;7.10;1.90;;;;;;;7.07;98.50;93623.75;4980612;28;20196;-79
2023/03/09 04:44:38;;;;;;;8.20;1.90;;;;;;;7.13;98.70;93617.06;4998867;28;20597;-79
2023/03/09 04:47:03;;;;;;;7.37;1.77;;;;;;;7.12;98.63;93636.13;5000065;28;20247;-79
2023/03/09 04:49:29;;;;;;;9.17;2.40;;;;;;;7.07;98.44;93634.06;4994582;28;20206;-79
2023/03/09 04:51:54;;;;;;;5.93;2.30;;;;;;;7.13;98.45;93632.56;4977582;28;20188;-79
2023/03/09 04:54:21;;;;;;;6.77;2.10;;;;;;;7.08;99.00;93633.09;4996849;28;20208;-80
2023/03/09 04:56:46;;;;;;;8.90;2.37;;;;;;;7.06;98.88;93635.81;4985462;28;20283;-79
2023/03/09 04:59:11;;;;;;;3.87;1.70;;;;;;;7.09;98.95;93632.09;4974853;28;20782;-79
2023/03/09 05:01:37;;;;;;;5.13;2.27;;;;;;;7.11;98.42;93648.22;4999195;28;20247;-80
2023/03/09 05:04:02;;;;;;;5.90;1.90;;;;;;;7.13;98.54;93642.88;4996732;28;20244;-79
2023/03/09 05:06:27;;;;;;;9.50;2.47;;;;;;;7.08;98.85;93646.78;4991304;28;20238;-80
2023/03/09 05:08:53;;;;;;;7.47;2.27;;;;;;;7.06;97.93;93640.19;4991252;28;20180;-79
2023/03/09 05:11:18;;;;;;;5.63;1.93;;;;;;;7.12;98.13;93656.75;4989203;28;20250;-78
2023/03/09 05:13:43;;;;;;;8.30;2.50;;;;;;;7.16;97.54;93653.69;4986562;28;20273;-79
2023/03/09 05:16:09;;;;;;;8.57;1.87;;;;;;;7.17;98.10;93659.63;4987766;28;20204;-79
2023/03/09 05:18:34;;;;;;;9.77;2.47;;;;;;;7.15;98.08;93664.94;4992698;28;20234;-79
2023/03/09 05:21:07;;;;;;;5.57;2.10;;;;;;;7.13;98.04;93660.94;4993453;28;20184;-80
2023/03/09 05:23:33;;;;;;;6.60;2.13;;;;;;;7.25;97.67;93682.81;4982644;28;20198;-79
2023/03/09 05:25:59;;;;;;;8.17;2.10;;;;;;;7.26;98.01;93682.63;4991061;28;20216;-80
2023/03/09 05:28:24;;;;;;;9.00;2.10;;;;;;;7.21;98.40;93691.88;4996950;28;20196;-79
2023/03/09 05:30:50;;;;;;;8.93;2.57;;;;;;;7.23;97.58;93689.91;4973372;28;20591;-79
2023/03/09 05:33:16;;;;;;;8.40;2.43;;;;;;;7.15;97.99;93680.44;4970644;28;20228;-79
2023/03/09 05:35:42;;;;;;;9.17;1.80;;;;;;;7.15;97.79;93702.88;4988827;28;20230;-79
2023/03/09 05:38:07;;;;;;;8.10;2.00;;;;;;;7.21;97.27;93697.03;4989701;28;20180;-78
2023/03/09 05:40:32;;;;;;;12.63;2.17;;;;;;;7.23;97.23;93695.06;4975046;28;20744;-78
2023/03/09 05:42:58;;;;;;;8.17;2.20;;;;;;;7.20;97.50;93705.75;4988267;28;20196;-79
2023/03/09 05:45:23;;;;;;;7.83;1.90;;;;;;;7.17;97.56;93708.69;4972383;28;20209;-79
2023/03/09 05:47:48;;;;;;;7.30;1.80;;;;;;;7.17;97.18;93709.50;4989547;28;20184;-79
2023/03/09 05:50:13;;;;;;;8.87;2.20;;;;;;;7.20;96.52;93711.72;4985313;28;20184;-79
2023/03/09 05:52:39;;;;;;;7.20;2.13;;;;;;;7.17;96.49;93717.22;4971990;28;20192;-79
2023/03/09 05:55:05;;;;;;;7.47;2.20;;;;;;;7.15;96.24;93726.09;4973839;28;20595;-80
2023/03/09 05:57:30;;;;;;;7.90;2.13;;;;;;;7.19;95.64;93724.81;4982248;28;20189;-79
2023/03/09 05:59:55;;;;;;;11.87;2.93;;;;;;;7.25;95.06;93726.72;4973328;28;20272;-79
2023/03/09 06:02:20;;;;;;;11.43;3.00;;;;;;;7.23;95.48;93731.22;4976704;28;20199;-80
2023/03/09 06:04:50;;;;;;;7.30;2.37;;;;;;;7.24;94.97;93740.56;4994748;28;20195;-80
2023/03/09 06:07:16;;;;;;;9.83;2.13;;;;;;;7.30;94.11;93745.84;4980544;28;20216;-80
2023/03/09 06:09:41;;;;;;;9.27;3.10;;;;;;;7.33;93.30;93755.84;4973118;28;20184;-79
2023/03/09 06:12:06;;;;;;;11.17;3.67;;;;;;;7.38;92.58;93765.66;4978441;28;20358;-80
2023/03/09 06:14:35;;;;;;;22.73;9.97;;;;;;;7.39;92.19;93767.25;4977684;28;20214;-79
2023/03/09 06:17:01;;;;;;;9.33;3.40;;;;;;;7.45;91.18;93769.16;4986555;28;20227;-80
2023/03/09 06:19:26;;;;;;;9.37;2.77;;;;;;;7.52;90.96;93777.03;4987434;28;20204;-79
2023/03/09 06:21:52;;;;;;;11.00;3.40;;;;;;;7.42;90.83;93768.69;4974591;28;20921;-80
2023/03/09 06:24:17;;;;;;;12.27;2.50;;;;;;;7.53;89.74;93771.69;4992823;28;20210;-80
2023/03/09 06:26:43;;;;;;;10.10;2.43;;;;;;;7.46;90.07;93778.53;4975999;28;20700;-79
2023/03/09 06:29:08;;;;;;;11.33;4.37;;;;;;;7.64;88.85;93771.28;4981864;28;20185;-79
2023/03/09 06:31:33;;;;;;;10.83;2.57;;;;;;;7.61;87.06;93781.97;4981112;28;20243;-80
2023/03/09 06:33:58;;;;;;;8.70;2.27;;;;;;;7.71;86.89;93780.94;4993783;28;20652;-79
2023/03/09 06:36:24;;;;;;;8.77;2.23;;;;;;;7.67;86.30;93775.28;4987036;28;20680;-80
2023/03/09 06:38:49;;;;;;;6.13;1.80;;;;;;;7.75;85.83;93789.94;4991117;28;20212;-79
2023/03/09 06:41:15;;;;;;;5.43;1.90;;;;;;;7.65;86.48;93813.44;4980129;28;20624;-80
2023/03/09 06:43:41;;;;;;;8.43;2.17;;;;;;;7.59;87.54;93798.59;4990551;28;20645;-80
2023/03/09 06:46:08;;;;;;;9.77;1.77;;;;;;;7.61;87.17;93797.47;4984112;28;20258;-79
2023/03/09 06:48:33;;;;;;;8.77;1.60;;;;;;;7.57;87.49;93809.13;4962751;28;20188;-79
2023/03/09 06:50:58;;;;;;;10.67;1.80;;;;;;;7.79;86.62;93807.53;4985750;28;20192;-81
2023/03/09 06:53:24;;;;;;;6.90;1.87;;;;;;;7.73;86.28;93815.16;4998353;28;20195;-79
2023/03/09 06:55:49;;;;;;;8.90;1.53;;;;;;;7.70;85.94;93820.69;4973340;28;20210;-80
2023/03/09 06:58:14;;;;;;;10.83;2.03;;;;;;;7.87;85.30;93811.84;4990116;28;20231;-79
2023/03/09 07:00:40;;;;;;;5.93;1.83;;;;;;;8.02;84.17;93828.16;4982946;28;20291;-80
2023/03/09 07:03:09;;;;;;;7.13;2.00;;;;;;;8.07;83.38;93828.47;4988572;28;20237;-80
2023/03/09 07:05:34;;;;;;;7.00;2.40;;;;;;;8.16;82.65;93831.78;4993561;28;20667;-79
2023/03/09 07:07:59;;;;;;;7.37;1.60;;;;;;;8.28;81.28;93829.56;4991044;28;20199;-79
2023/03/09 07:10:24;;;;;;;8.33;1.90;;;;;;;8.17;81.72;93843.72;4977292;28;20210;-80
2023/03/09 07:12:50;;;;;;;9.33;1.53;;;;;;;8.26;81.73;93836.72;4981551;28;20580;-80
2023/03/09 07:15:15;;;;;;;9.80;1.93;;;;;;;8.28;81.53;93837.34;4977462;28;20223;-80
2023/03/09 07:17:42;;;;;;;8.17;1.73;;;;;;;8.25;80.96;93846.25;4967135;28;20255;-80
2023/03/09 07:20:09;;;;;;;8.37;1.50;;;;;;;8.34;81.46;93865.09;4978159;28;20220;-80
2023/03/09 07:22:34;;;;;;;7.30;1.80;;;;;;;8.31;81.18;93873.22;4995829;28;20219;-79
2023/03/09 07:24:59;;;;;;;8.93;2.03;;;;;;;8.28;81.59;93871.75;4978007;28;20196;-80
2023/03/09 07:27:24;;;;;;;5.90;1.73;;;;;;;8.17;82.13;93880.72;4984026;28;20191;-80
2023/03/09 07:29:50;;;;;;;7.27;1.60;;;;;;;8.17;81.78;93885.91;4980068;28;20199;-80
2023/03/09 07:32:15;;;;;;;6.37;1.80;;;;;;;8.43;81.64;93895.91;4960431;28;20243;-80
2023/03/09 07:34:40;;;;;;;8.40;2.20;;;;;;;8.40;80.55;93911.00;4965490;28;20192;-80
2023/03/09 07:37:06;;;;;;;4.37;1.37;;;;;;;8.36;80.53;93913.09;4966436;28;20204;-79
2023/03/09 07:39:31;;;;;;;7.33;2.10;;;;;;;8.35;79.07;93915.88;4991525;28;20226;-79
2023/03/09 07:41:57;;;;;;;9.20;1.83;;;;;;;8.61;79.67;93911.13;4973370;28;20190;-79
2023/03/09 07:44:22;;;;;;;7.27;1.90;;;;;;;8.49;78.89;93925.47;4986158;28;20185;-79
2023/03/09 07:46:47;;;;;;;6.67;2.30;;;;;;;8.59;78.61;93926.03;4982248;28;20214;-79
2023/03/09 07:49:13;;;;;;;7.40;2.10;;;;;;;8.68;77.70;93932.75;4977699;28;20192;-79
2023/03/09 07:51:38;;;;;;;5.77;1.60;;;;;;;8.84;77.65;93934.38;4987783;28;20184;-79
2023/03/09 07:54:07;;;;;;;9.07;2.40;;;;;;;8.86;77.28;93935.00;4967467;28;20192;-79
2023/03/09 07:56:33;;;;;;;5.67;1.93;;;;;;;8.89;77.53;93952.75;4977474;28;20333;-80
2023/03/09 07:58:58;;;;;;;5.63;2.30;;;;;;;9.12;77.43;93952.72;4963231;28;20294;-79
2023/03/09 08:01:24;;;;;;;7.10;3.73;;;;;;;9.02;76.92;93963.34;4968393;28;20200;-79
2023/03/09 08:03:49;;;;;;;6.00;2.40;;;;;;;9.01;77.10;93966.06;4996774;28;20644;-80
2023/03/09 08:06:15;;;;;;;6.40;2.13;;;;;;;8.91;77.67;93981.06;4969622;28;20262;-79
2023/03/09 08:08:41;;;;;;;5.87;1.50;;;;;;;9.27;78.11;93974.22;4977023;28;20604;-80
2023/03/09 08:11:07;;;;;;;7.13;1.70;;;;;;;8.93;79.22;93981.72;4984867;28;20189;-80
2023/03/09 08:13:33;;;;;;;4.67;1.30;;;;;;;9.03;78.68;93966.72;4977163;28;20192;-80
2023/03/09 08:16:01;;;;;;;6.40;1.97;;;;;;;9.19;77.85;93989.03;4981913;28;20200;-80
2023/03/09 08:18:27;;;;;;;8.73;1.23;;;;;;;9.11;78.57;93997.72;4976201;28;20188;-80
2023/03/09 08:20:53;;;;;;;3.70;1.13;;;;;;;9.31;78.69;94008.38;4974831;28;20239;-80
2023/03/09 08:23:18;;;;;;;5.73;1.43;;;;;;;9.35;79.79;94012.19;4979544;28;20184;-80
2023/03/09 08:25:44;;;;;;;4.97;1.40;;;;;;;9.29;80.46;94010.34;4983365;28;20223;-80
2023/03/09 08:28:11;;;;;;;4.57;1.20;;;;;;;8.99;82.86;94012.06;4978955;28;20251;-80
2023/03/09 08:30:38;;;;;;;9.77;1.27;;;;;;;8.99;83.14;94043.13;4975875;28;20583;-78
2023/03/09 08:33:04;;;;;;;6.57;1.30;;;;;;;9.08;84.56;94031.72;4963394;28;20196;-80
2023/03/09 08:35:32;;;;;;;5.20;1.30;;;;;;;9.38;83.63;94050.72;4967249;28;20208;-80
2023/03/09 08:37:57;;;;;;;3.60;1.20;;;;;;;9.43;84.62;94043.22;4989473;28;20203;-80
2023/03/09 08:40:22;;;;;;;6.77;1.30;;;;;;;9.58;85.00;94063.97;4994220;28;20207;-80
2023/03/09 08:42:48;;;;;;;2.67;0.83;;;;;;;9.20;86.20;94064.00;4986638;28;20193;-80
2023/03/09 08:45:13;;;;;;;4.00;1.13;;;;;;;9.02;87.48;94068.69;4986825;28;20199;-80
2023/03/09 08:47:39;;;;;;;4.33;1.10;;;;;;;9.12;87.01;94055.50;4980100;28;20187;-81
2023/03/09 08:50:05;;;;;;;3.97;1.17;;;;;;;9.12;88.47;94066.66;4976547;28;20177;-80
2023/03/09 08:52:36;;;;;;;5.43;1.30;;;;;;;8.95;87.33;94065.19;4974406;28;20184;-80
2023/03/09 08:55:02;;;;;;;3.63;1.00;;;;;;;9.09;86.83;94085.91;4984769;28;20212;-80
2023/03/09 08:57:28;;;;;;;3.50;1.30;;;;;;;9.17;87.18;94072.09;4981558;28;20668;-80
2023/03/09 08:59:53;;;;;;;5.70;1.37;;;;;;;9.46;85.25;94073.16;4986128;28;20232;-80
2023/03/09 09:02:18;;;;;;;1.83;1.03;;;;;;;9.48;85.05;94069.41;4993738;28;20206;-80
2023/03/09 09:04:44;;;;;;;4.03;1.40;;;;;;;9.61;83.71;94076.56;4999620;28;20726;-79
2023/03/09 09:07:11;;;;;;;4.07;1.07;;;;;;;10.06;83.26;94067.81;4998891;28;20211;-80
2023/03/09 09:09:36;;;;;;;3.00;0.97;;;;;;;10.04;82.02;94087.13;4994081;28;20212;-80
2023/03/09 09:12:02;;;;;;;4.47;1.50;;;;;;;10.03;81.69;94082.94;4997893;28;20703;-80
2023/03/09 09:14:27;;;;;;;7.67;1.27;;;;;;;10.11;82.44;94099.22;5000894;28;20225;-80
2023/03/09 09:16:52;;;;;;;4.27;1.00;;;;;;;10.21;80.92;94088.56;4996095;28;20711;-80
2023/03/09 09:19:18;;;;;;;4.53;1.50;;;;;;;10.03;80.14;94095.91;4995852;28;20247;-79
2023/03/09 09:21:43;;;;;;;3.07;1.23;;;;;;;10.04;80.00;94105.28;5001949;28;20188;-79
2023/03/09 09:24:08;;;;;;;2.73;1.03;;;;;;;9.55;81.65;94093.66;4980560;28;20199;-79
2023/03/09 09:26:34;;;;;;;7.57;1.80;;;;;;;9.43;82.02;94095.03;4979451;28;20227;-80
2023/03/09 09:29:01;;;;;;;4.93;1.33;;;;;;;9.74;81.68;94092.31;4990647;28;20227;-80
2023/03/09 09:31:26;;;;;;;4.00;1.50;;;;;;;9.69;82.80;94105.00;4985530;28;20719;-79
2023/03/09 09:33:52;;;;;;;5.53;1.20;;;;;;;9.63;82.86;94106.53;4988932;28;20185;-80
2023/03/09 09:36:18;;;;;;;7.77;3.60;;;;;;;9.47;82.48;94105.88;4993069;28;20211;-80
2023/03/09 09:38:44;;;;;;;6.07;1.87;;;;;;;9.62;81.60;94111.88;4999268;28;20187;-80
2023/03/09 09:41:31;;;;;;;7.73;1.70;;;;;;;9.61;81.87;94105.06;4983553;28;20188;-79
2023/03/09 09:44:00;;;;;;;3.00;1.43;;;;;;;9.67;81.14;94111.34;4991335;28;20184;-79
2023/03/09 09:46:26;;;;;;;5.53;1.73;;;;;;;9.81;80.56;94126.13;4995071;28;20661;-79
2023/03/09 09:48:51;;;;;;;5.80;1.73;;;;;;;9.93;80.06;94127.28;4982833;28;20196;-80
2023/03/09 09:51:27;;;;;;;8.70;1.60;;;;;;;9.65;82.75;94130.47;4994182;28;20220;-80
2023/03/09 09:54:11;;;;;;;3.53;1.30;;;;;;;9.64;84.10;94143.63;4994441;28;20539;-80
2023/03/09 09:57:00;;;;;;;6.37;1.30;;;;;;;9.50;87.20;94141.78;4998651;28;20616;-79
2023/03/09 09:59:41;;;;;;;4.43;1.53;;;;;;;9.82;86.37;94157.06;4983406;28;20298;-80
2023/03/09 10:02:16;;;;;;;5.30;1.60;;;;;;;9.95;86.63;94159.03;4989547;28;20184;-80
2023/03/09 10:04:46;;;;;;;4.07;1.30;;;;;;;9.87;86.82;94159.91;4979160;28;20198;-79
2023/03/09 10:07:15;;;;;;;9.07;1.73;;;;;;;9.58;85.81;94162.44;4979743;28;20203;-80
2023/03/09 10:09:43;;;;;;;3.00;1.53;;;;;;;9.46;86.53;94154.31;4981227;28;20195;-80
2023/03/09 10:12:10;;;;;;;4.30;1.10;;;;;;;9.43;88.05;94165.00;4984887;28;20200;-80
2023/03/09 10:14:40;;;;;;;4.67;1.07;;;;;;;9.45;88.55;94165.63;4981900;28;20727;-80
2023/03/09 10:17:17;;;;;;;5.60;1.60;;;;;;;9.51;88.33;94161.53;4987282;28;20283;-80
2023/03/09 10:19:43;;;;;;;4.13;1.33;;;;;;;9.09;90.62;94162.81;4986667;28;20199;-80
2023/03/09 10:22:11;;;;;;;5.60;1.47;;;;;;;9.46;89.56;94150.91;4983260;28;20212;-80
2023/03/09 10:24:50;;;;;;;3.77;1.47;;;;;;;9.59;86.62;94174.44;4985666;28;20185;-80
2023/03/09 10:27:28;;;;;;;4.93;1.40;;;;;;;9.87;86.36;94164.28;4971230;28;20220;-80
2023/03/09 10:29:57;;;;;;;4.03;1.37;;;;;;;9.96;83.90;94175.38;4995577;28;20227;-80
2023/03/09 10:32:34;;;;;;;3.33;1.20;;;;;;;9.87;83.75;94165.09;4985180;28;20772;-80
2023/03/09 10:35:27;;;;;;;5.63;1.40;;;;;;;10.10;84.52;94179.81;4982407;28;20184;-80
2023/03/09 10:37:52;;;;;;;6.33;1.40;;;;;;;10.39;81.47;94168.66;5000862;28;20267;-80
2023/03/09 10:40:24;;;;;;;3.97;1.30;;;;;;;10.12;81.34;94188.19;4983819;28;20298;-80
2023/03/09 10:42:49;;;;;;;7.13;1.63;;;;;;;10.17;82.56;94189.28;4981957;28;20231;-80
2023/03/09 10:45:35;;;;;;;4.50;1.50;;;;;;;10.80;81.79;94186.34;4993489;28;20196;-81
2023/03/09 10:48:04;;;;;;;8.43;1.70;;;;;;;10.49;82.43;94185.53;4998764;28;20327;-80
2023/03/09 10:50:37;;;;;;;5.20;1.33;;;;;;;10.28;81.73;94189.84;4981800;28;20185;-80
2023/03/09 10:53:37;;;;;;;6.93;1.60;;;;;;;10.36;80.46;94192.38;4988430;28;20256;-80
2023/03/09 10:56:13;;;;;;;4.00;1.27;;;;;;;10.47;80.43;94189.31;4994342;28;20210;-80
2023/03/09 10:58:39;;;;;;;3.70;1.53;;;;;;;10.63;81.24;94194.31;4992822;28;20186;-79
2023/03/09 11:01:20;;;;;;;7.50;2.40;;;;;;;10.33;79.79;94190.91;4979158;28;20259;-79
2023/03/09 11:03:45;;;;;;;3.93;1.47;;;;;;;10.64;79.22;94195.94;4981866;28;20200;-80
2023/03/09 11:06:23;;;;;;;6.17;1.60;;;;;;;10.40;79.55;94197.00;4962109;28;20552;-79
2023/03/09 11:09:18;;;;;;;3.40;1.23;;;;;;;10.65;79.10;94205.31;4968476;28;20192;-80
2023/03/09 11:11:45;;;;;;;2.27;1.13;;;;;;;10.36;83.13;94200.16;4985143;28;20208;-80
2023/03/09 11:14:31;;;;;;;5.80;1.93;;;;;;;10.45;82.31;94204.28;4992725;28;20180;-78
2023/03/09 11:16:59;;;;;;;6.97;3.70;;;;;;;10.10;83.04;94205.75;4987671;28;20200;-80
2023/03/09 11:19:25;;;;;;;6.10;2.50;;;;;;;9.86;82.28;94201.56;4982185;28;20207;-78
2023/03/09 11:21:56;;;;;;;4.67;1.73;;;;;;;10.39;83.43;94205.78;4985749;28;20180;-79
2023/03/09 11:24:26;;;;;;;5.70;2.77;;;;;;;10.02;83.97;94208.41;4992919;28;20180;-79
2023/03/09 11:26:58;;;;;;;5.57;2.83;;;;;;;10.29;82.95;94204.44;4984556;28;20671;-81
2023/03/09 11:29:47;;;;;;;8.17;4.13;;;;;;;10.58;82.53;94209.63;4990575;28;20715;-81
2023/03/09 11:32:12;;;;;;;4.83;2.03;;;;;;;10.75;81.33;94220.63;4992680;28;20183;-79
2023/03/09 11:34:41;;;;;;;7.53;3.07;;;;;;;10.79;80.38;94216.69;4970114;28;20238;-79
2023/03/09 11:37:17;;;;;;;4.70;1.57;;;;;;;10.57;80.04;94220.19;4981771;28;20207;-79
2023/03/09 11:39:52;;;;;;;5.93;1.10;;;;;;;10.00;81.56;94220.75;4976724;28;20204;-79